createdAt,value
2022-08-26T00:02:29.488Z,9.00
2022-08-26T00:07:31.154Z,6.03
2022-08-26T00:12:37.336Z,15.18
2022-08-26T00:17:40.328Z,8.23
2022-08-26T00:22:42.097Z,10.32
2022-08-26T00:27:45.570Z,13.27
2022-08-26T00:32:47.245Z,7.90
2022-08-26T00:37:51.167Z,10.15
2022-08-26T00:42:53.055Z,8.10
2022-08-26T00:48:01.211Z,16.08
2022-08-26T00:53:21.479Z,10.57
2022-08-26T00:58:29.505Z,6.50
2022-08-26T01:03:34.206Z,11.00
2022-08-26T01:08:36.134Z,9.07
2022-08-26T01:13:38.831Z,8.50
2022-08-26T01:18:43.329Z,13.10
2022-08-26T01:23:50.702Z,6.93
2022-08-26T01:28:55.877Z,14.80
2022-08-26T01:34:15.377Z,10.25
2022-08-26T01:39:17.712Z,8.25
2022-08-26T01:44:23.494Z,11.90
2022-08-26T01:49:26.703Z,7.32
2022-08-26T01:54:28.426Z,10.17
2022-08-26T01:59:30.390Z,10.95
2022-08-26T02:04:41.347Z,6.93
2022-08-26T02:09:44.197Z,9.65
2022-08-26T02:14:53.218Z,12.10
2022-08-26T02:19:56.132Z,11.60
2022-08-26T02:25:02.367Z,11.07
2022-08-26T02:30:07.206Z,9.80
2022-08-26T02:35:11.890Z,11.25
2022-08-26T02:40:17.012Z,8.20
2022-08-26T02:45:23.273Z,7.85
2022-08-26T02:50:25.735Z,13.95
2022-08-26T02:55:27.324Z,7.25
2022-08-26T03:00:29.479Z,7.47
2022-08-26T03:05:31.376Z,7.72
2022-08-26T03:10:32.934Z,7.20
2022-08-26T03:15:34.746Z,7.40
2022-08-26T03:20:36.418Z,10.45
2022-08-26T03:25:38.698Z,10.27
2022-08-26T03:30:45.444Z,8.93
2022-08-26T03:35:50.803Z,11.85
2022-08-26T03:40:52.530Z,11.85
2022-08-26T03:45:54.101Z,6.28
2022-08-26T03:50:56.370Z,9.60
2022-08-26T03:55:59.250Z,10.18
2022-08-26T04:01:00.930Z,10.70
2022-08-26T04:06:03.850Z,8.18
2022-08-26T04:11:06.413Z,11.55
2022-08-26T04:16:08.289Z,9.63
2022-08-26T04:21:12.210Z,9.32
2022-08-26T04:26:19.839Z,11.40
2022-08-26T04:31:22.656Z,10.88
2022-08-26T04:36:25.290Z,11.18
2022-08-26T04:41:27.353Z,12.60
2022-08-26T04:46:33.387Z,11.60
2022-08-26T04:51:36.420Z,12.30
2022-08-26T04:56:41.430Z,8.30
2022-08-26T05:01:48.663Z,10.88
2022-08-26T05:06:51.943Z,14.40
2022-08-26T05:11:54.086Z,11.03
2022-08-26T05:16:55.894Z,10.48
2022-08-26T05:21:57.870Z,10.40
2022-08-26T05:26:59.454Z,11.68
2022-08-26T05:32:01.662Z,12.85
2022-08-26T05:37:05.442Z,16.25
2022-08-26T05:42:08.271Z,15.13
2022-08-26T05:52:12.637Z,11.05
2022-08-26T05:57:14.334Z,11.75
2022-08-26T06:02:15.871Z,15.20
2022-08-26T06:07:40.287Z,21.77
2022-08-26T06:12:41.873Z,11.65
2022-08-26T06:23:05.639Z,13.25
2022-08-26T06:28:08.050Z,10.95
2022-08-26T06:33:09.736Z,21.00
2022-08-26T06:38:11.970Z,16.13
2022-08-26T06:43:14.764Z,15.50
2022-08-26T06:48:20.247Z,13.70
2022-08-26T06:53:22.921Z,12.68
2022-08-26T06:58:24.505Z,13.82
2022-08-26T07:03:26.286Z,17.52
2022-08-26T07:08:27.853Z,9.75
2022-08-26T07:13:30.535Z,10.65
2022-08-26T07:18:34.389Z,13.70
2022-08-26T07:23:36.395Z,12.68
2022-08-26T07:28:39.348Z,14.27
2022-08-26T07:33:41.625Z,18.25
2022-08-26T07:38:44.506Z,12.60
2022-08-26T07:43:46.221Z,8.63
2022-08-26T07:48:49.383Z,10.00
2022-08-26T07:53:52.690Z,12.68
2022-08-26T07:58:54.437Z,10.15
2022-08-26T08:03:56.581Z,16.33
2022-08-26T08:08:58.173Z,13.80
2022-08-26T08:14:00.992Z,15.15
2022-08-26T08:19:03.144Z,12.13
2022-08-26T08:24:05.609Z,13.63
2022-08-26T08:29:08.794Z,22.63
2022-08-26T08:34:10.395Z,15.90
2022-08-26T08:39:12.348Z,20.25
2022-08-26T08:44:20.422Z,15.00
2022-08-26T08:49:23.281Z,12.73
2022-08-26T08:54:26.808Z,15.98
2022-08-26T09:04:54.076Z,13.18
2022-08-26T09:10:01.876Z,11.98
2022-08-26T09:15:16.507Z,12.40
2022-08-26T09:20:36.758Z,15.40
2022-08-26T09:25:50.914Z,11.20
2022-08-26T09:31:29.212Z,7.93
2022-08-26T09:36:41.494Z,14.13
2022-08-26T09:41:43.520Z,13.10
2022-08-26T09:46:55.526Z,18.02
2022-08-26T09:52:21.786Z,11.45
2022-08-26T09:57:29.025Z,8.50
2022-08-26T10:02:33.201Z,11.07
2022-08-26T10:07:46.874Z,15.70
2022-08-26T10:12:58.276Z,10.73
2022-08-26T10:18:52.559Z,14.90
2022-08-26T10:23:59.374Z,12.07
2022-08-26T10:29:10.393Z,17.05
2022-08-26T10:34:14.170Z,10.05
2022-08-26T10:39:25.369Z,13.70
2022-08-26T10:44:34.412Z,10.07
2022-08-26T10:49:37.457Z,17.27
2022-08-26T10:55:01.319Z,19.55
2022-08-26T11:00:34.691Z,21.42
2022-08-26T11:05:36.243Z,27.27
2022-08-26T11:10:58.930Z,15.88
2022-08-26T11:16:01.295Z,14.23
2022-08-26T11:21:02.985Z,10.85
2022-08-26T11:26:11.050Z,11.27
2022-08-26T11:31:38.527Z,16.63
2022-08-26T11:36:43.491Z,14.75
2022-08-26T11:41:47.753Z,24.73
2022-08-26T11:47:00.701Z,14.90
2022-08-26T11:52:21.091Z,21.95
2022-08-26T11:57:26.439Z,13.95
2022-08-26T12:02:28.625Z,13.60
2022-08-26T12:07:30.453Z,10.77
2022-08-26T12:12:36.146Z,9.77
2022-08-26T12:17:39.475Z,9.55
2022-08-26T12:22:43.450Z,8.75
2022-08-26T12:27:53.653Z,17.85
2022-08-26T12:33:21.857Z,11.25
2022-08-26T12:38:26.859Z,11.05
2022-08-26T12:43:43.951Z,11.82
2022-08-26T12:48:49.022Z,6.97
2022-08-26T12:53:50.806Z,13.48
2022-08-26T12:59:11.152Z,14.30
2022-08-26T13:04:33.371Z,17.55
2022-08-26T13:09:36.256Z,15.68
2022-08-26T13:19:40.277Z,10.68
2022-08-26T13:24:43.920Z,18.70
2022-08-26T13:29:45.422Z,17.70
2022-08-26T13:34:51.406Z,13.88
2022-08-26T13:39:54.381Z,15.23
2022-08-26T13:44:58.073Z,13.68
2022-08-26T13:49:59.767Z,18.13
2022-08-26T13:55:01.405Z,14.38
2022-08-26T14:00:05.260Z,14.75
2022-08-26T14:05:07.286Z,13.38
2022-08-26T14:10:09.375Z,9.87
2022-08-26T14:15:12.026Z,15.50
2022-08-26T14:20:20.076Z,12.25
2022-08-26T14:25:22.442Z,9.38
2022-08-26T14:30:24.055Z,9.23
2022-08-26T14:35:28.726Z,11.52
2022-08-26T14:40:31.977Z,9.73
2022-08-26T14:50:46.739Z,16.48
2022-08-26T14:55:48.292Z,14.20
2022-08-26T15:00:49.815Z,16.05
2022-08-26T15:05:51.417Z,12.43
2022-08-26T15:10:52.907Z,28.33
2022-08-26T15:15:54.557Z,14.25
2022-08-26T15:20:56.054Z,5.78
2022-08-26T15:25:57.663Z,5.82
2022-08-26T15:31:00.390Z,9.02
2022-08-26T15:36:04.229Z,9.33
2022-08-26T15:41:06.938Z,14.05
2022-08-26T15:46:11.998Z,16.23
2022-08-26T15:51:26.190Z,9.32
2022-08-26T15:56:30.157Z,5.30
2022-08-26T16:01:31.967Z,8.73
2022-08-26T16:06:35.931Z,9.70
2022-08-26T16:16:40.058Z,6.97
2022-08-26T16:21:42.214Z,6.97
2022-08-26T16:26:45.144Z,8.65
2022-08-26T16:31:47.596Z,6.07
2022-08-26T16:36:49.106Z,5.72
2022-08-26T16:41:50.679Z,7.93
2022-08-26T16:46:58.462Z,5.90
2022-08-26T16:52:00.382Z,5.35
2022-08-26T16:57:02.575Z,9.18
2022-08-26T17:02:04.883Z,10.30
2022-08-26T17:07:06.592Z,7.82
2022-08-26T17:12:09.341Z,6.45
2022-08-26T17:17:10.824Z,6.65
2022-08-26T17:22:13.469Z,5.72
2022-08-26T17:27:15.213Z,6.60
2022-08-26T17:32:16.744Z,6.35
2022-08-26T17:37:18.413Z,7.18
2022-08-26T17:42:19.990Z,6.60
2022-08-26T17:47:21.514Z,8.30
2022-08-26T17:52:23.028Z,5.38
2022-08-26T17:57:25.235Z,8.68
2022-08-26T18:02:34.078Z,8.93
2022-08-26T18:07:43.624Z,8.00
2022-08-26T18:12:46.558Z,8.30
2022-08-26T18:17:48.130Z,8.05
2022-08-26T18:22:49.826Z,15.48
2022-08-26T18:27:51.430Z,12.05
2022-08-26T18:32:53.010Z,9.57
2022-08-26T18:37:55.969Z,9.57
2022-08-26T18:42:57.461Z,7.67
2022-08-26T18:47:58.984Z,12.35
2022-08-26T18:53:02.326Z,9.38
2022-08-26T18:58:03.885Z,9.00
2022-08-26T19:03:05.477Z,12.98
2022-08-26T19:08:17.384Z,10.35
2022-08-26T19:13:19.281Z,9.35
2022-08-26T19:18:22.275Z,9.30
2022-08-26T19:23:32.661Z,11.85
2022-08-26T19:28:35.302Z,17.20
2022-08-26T19:33:41.903Z,14.95
2022-08-26T19:38:45.226Z,19.88
2022-08-26T19:43:47.116Z,15.32
2022-08-26T19:48:54.037Z,16.20
2022-08-26T19:53:59.790Z,15.70
2022-08-26T19:59:01.659Z,15.82
2022-08-26T20:04:04.093Z,16.98
2022-08-26T20:09:05.598Z,16.23
2022-08-26T20:14:07.094Z,14.77
2022-08-26T20:19:27.312Z,16.73
2022-08-26T20:24:29.579Z,18.23
2022-08-26T20:29:31.292Z,15.25
2022-08-26T20:34:34.056Z,17.08
2022-08-26T20:39:35.917Z,15.38
2022-08-26T20:44:37.658Z,22.23
2022-08-26T20:49:46.741Z,15.30
2022-08-26T20:54:53.781Z,16.98
2022-08-26T20:59:55.298Z,17.35
2022-08-26T21:04:57.804Z,12.30
2022-08-26T21:09:59.616Z,17.25
2022-08-26T21:15:01.779Z,17.33
2022-08-26T21:20:04.176Z,14.43
2022-08-26T21:25:06.250Z,13.73
2022-08-26T21:30:08.505Z,14.23
2022-08-26T21:35:10.271Z,17.08
2022-08-26T21:40:12.315Z,17.20
2022-08-26T21:45:13.843Z,19.20
2022-08-26T21:50:15.408Z,17.42
2022-08-26T21:55:16.997Z,20.60
2022-08-26T22:00:19.444Z,17.88
2022-08-26T22:05:20.973Z,19.42
2022-08-26T22:10:22.514Z,23.70
2022-08-26T22:15:27.333Z,22.17
2022-08-26T22:20:30.991Z,21.60
2022-08-26T22:25:32.619Z,22.83
2022-08-26T22:30:35.305Z,20.48
2022-08-26T22:35:41.615Z,21.98
2022-08-26T22:40:50.347Z,21.95
2022-08-26T22:45:53.157Z,25.65
2022-08-26T22:51:00.178Z,23.50
2022-08-26T22:56:02.100Z,29.85
2022-08-26T23:01:05.667Z,31.05
2022-08-26T23:06:11.745Z,26.00
2022-08-26T23:11:14.929Z,24.83
2022-08-26T23:16:16.615Z,22.37
2022-08-26T23:21:18.906Z,21.27
2022-08-26T23:26:20.414Z,24.88
2022-08-26T23:31:21.978Z,24.48
2022-08-26T23:36:23.783Z,21.33
2022-08-26T23:41:25.413Z,22.30
2022-08-26T23:46:26.980Z,25.90
2022-08-26T23:51:46.910Z,25.77
2022-08-26T23:56:50.429Z,26.23
